Time;durP1;ratioP1;P1;durP2;ratioP2;P2;SDS_P1;SDS_P2;PMS_P1;PMS_P2;Temp;Humidity;BMP_temperature;BMP_pressure;BME280_temperature;BME280_humidity;BME280_pressure;Samples;Min_cycle;Max_cycle;Signal;HPM_P1;HPM_P2
2021/07/10 00:00:33;;;;;;;;;;;;;;;23.16;54.95;100006.41;2085652;28;19947;-41
2021/07/10 00:01:33;;;;;;;;;;;;;;;23.16;55.08;100000.03;2083794;28;19916;-41
2021/07/10 00:02:33;;;;;;;;;;;;;;;23.17;54.90;100001.75;2081762;28;20334;-41
2021/07/10 00:03:34;;;;;;;;;;;;;;;23.17;54.85;100001.75;2079774;28;19920;-40
2021/07/10 00:04:34;;;;;;;;;;;;;;;23.17;54.92;100004.50;2084713;28;19920;-41
2021/07/10 00:05:35;;;;;;;;;;;;;;;23.16;55.10;99994.56;2084828;28;19916;-42
2021/07/10 00:06:35;;;;;;;;;;;;;;;23.17;55.03;99999.00;2084654;28;19916;-44
2021/07/10 00:07:36;;;;;;;;;;;;;;;23.16;55.12;99997.28;2085571;28;19925;-41
2021/07/10 00:08:36;;;;;;;;;;;;;;;23.15;55.23;100003.81;2083445;28;19912;-41
2021/07/10 00:09:37;;;;;;;;;;;;;;;23.16;54.99;100000.03;2085351;28;19917;-41
2021/07/10 00:10:37;;;;;;;;;;;;;;;23.17;55.02;100007.25;2079692;28;19917;-41
2021/07/10 00:11:38;;;;;;;;;;;;;;;23.16;55.05;100000.03;2079715;28;19923;-41
2021/07/10 00:12:38;;;;;;;;;;;;;;;23.16;55.10;100006.41;2087633;28;19997;-43
2021/07/10 00:13:39;;;;;;;;;;;;;;;23.16;55.17;100005.53;2083121;28;19916;-40
2021/07/10 00:14:40;;;;;;;;;;;;;;;23.15;55.13;100003.81;2081343;28;19916;-42
2021/07/10 00:15:40;;;;;;;;;;;;;;;23.16;55.00;100000.03;2085166;28;19918;-41
2021/07/10 00:16:41;;;;;;;;;;;;;;;23.16;55.19;100000.91;2086141;28;20308;-41
2021/07/10 00:17:42;;;;;;;;;;;;;;;23.14;55.17;100000.22;2084465;28;20318;-41
2021/07/10 00:18:42;;;;;;;;;;;;;;;23.15;55.17;100003.81;2085911;28;20211;-41
2021/07/10 00:19:42;;;;;;;;;;;;;;;23.15;55.05;100004.69;2082396;28;19965;-41
2021/07/10 00:20:43;;;;;;;;;;;;;;;23.15;55.11;100009.31;2085615;28;19909;-40
2021/07/10 00:21:44;;;;;;;;;;;;;;;23.15;55.29;100006.56;2083367;28;19944;-41
2021/07/10 00:22:44;;;;;;;;;;;;;;;23.14;55.29;99999.38;2084335;28;20376;-41
2021/07/10 00:23:45;;;;;;;;;;;;;;;23.15;55.00;100003.81;2085456;28;20169;-40
2021/07/10 00:24:46;;;;;;;;;;;;;;;23.14;55.14;100004.88;2084809;28;20033;-41
2021/07/10 00:25:46;;;;;;;;;;;;;;;23.16;55.19;100000.03;2085690;28;19963;-41
2021/07/10 00:26:46;;;;;;;;;;;;;;;23.15;55.17;99998.31;2076985;28;20382;-41
2021/07/10 00:27:47;;;;;;;;;;;;;;;23.13;55.29;100000.38;2084840;28;19926;-41
2021/07/10 00:28:47;;;;;;;;;;;;;;;23.13;55.23;100003.13;2082139;28;20366;-41
2021/07/10 00:29:48;;;;;;;;;;;;;;;23.14;55.31;100000.22;2085096;28;20140;-41
2021/07/10 00:30:48;;;;;;;;;;;;;;;23.14;55.24;100007.63;2081146;28;20306;-39
2021/07/10 00:31:48;;;;;;;;;;;;;;;23.14;55.46;100007.63;2078149;28;19923;-41
2021/07/10 00:32:49;;;;;;;;;;;;;;;23.14;55.40;99999.38;2081994;28;19923;-42
2021/07/10 00:33:49;;;;;;;;;;;;;;;23.14;55.21;100007.63;2085084;28;19927;-42
2021/07/10 00:34:50;;;;;;;;;;;;;;;23.13;55.29;99994.88;2084240;28;20094;-41
2021/07/10 00:35:50;;;;;;;;;;;;;;;23.14;55.33;100002.13;2081228;28;19917;-42
2021/07/10 00:36:50;;;;;;;;;;;;;;;23.14;55.42;99996.63;2078278;28;19917;-40
2021/07/10 00:37:51;;;;;;;;;;;;;;;23.13;55.37;100000.38;2084885;28;19938;-41
2021/07/10 00:38:53;;;;;;;;;;;;;;;23.13;55.57;100000.38;2084184;28;19978;-40
2021/07/10 00:39:53;;;;;;;;;;;;;;;23.14;55.31;99996.63;2077588;28;19928;-41
2021/07/10 00:40:53;;;;;;;;;;;;;;;23.13;55.32;99992.13;2082861;28;19923;-41
2021/07/10 00:41:54;;;;;;;;;;;;;;;23.11;55.38;99990.44;2081930;28;19923;-41
2021/07/10 00:42:54;;;;;;;;;;;;;;;23.12;55.47;99988.53;2083571;28;19916;-41
2021/07/10 00:43:54;;;;;;;;;;;;;;;23.13;55.46;99989.38;2084688;28;19967;-41
2021/07/10 00:44:55;;;;;;;;;;;;;;;23.13;55.49;99987.53;2084672;28;19916;-41
2021/07/10 00:45:55;;;;;;;;;;;;;;;23.13;55.29;99989.38;2084025;28;19916;-41
2021/07/10 00:46:55;;;;;;;;;;;;;;;23.13;55.48;99989.38;2085242;28;20238;-41
2021/07/10 00:47:56;;;;;;;;;;;;;;;23.13;55.21;99983.88;2082786;28;19932;-40
2021/07/10 00:48:56;;;;;;;;;;;;;;;23.13;55.38;99981.13;2083634;28;20064;-41
2021/07/10 00:49:56;;;;;;;;;;;;;;;23.12;55.31;99983.03;2086381;28;19962;-41
2021/07/10 00:50:57;;;;;;;;;;;;;;;23.11;55.31;99976.69;2080204;28;19917;-41
2021/07/10 00:51:57;;;;;;;;;;;;;;;23.13;55.41;99989.38;2076079;28;20385;-40
2021/07/10 00:52:57;;;;;;;;;;;;;;;23.14;55.50;99977.38;2079621;28;19923;-40
2021/07/10 00:53:58;;;;;;;;;;;;;;;23.13;55.39;99981.13;2077346;28;19927;-41
2021/07/10 00:54:58;;;;;;;;;;;;;;;23.12;55.49;99983.03;2082945;28;19922;-42
2021/07/10 00:55:58;;;;;;;;;;;;;;;23.13;55.39;99986.63;2084175;28;19920;-41
2021/07/10 00:56:59;;;;;;;;;;;;;;;23.13;55.37;99975.63;2079361;28;19948;-41
2021/07/10 00:58:00;;;;;;;;;;;;;;;23.11;55.58;99982.19;2083000;28;20329;-42
2021/07/10 00:59:01;;;;;;;;;;;;;;;23.13;55.47;99972.88;2080026;28;19923;-40
2021/07/10 01:00:04;;;;;;;;;;;;;;;23.13;55.40;99972.88;2082356;28;19952;-40
2021/07/10 01:01:04;;;;;;;;;;;;;;;23.13;55.40;99972.88;2082928;28;19999;-41
2021/07/10 01:02:05;;;;;;;;;;;;;;;23.10;55.63;99964.00;2078912;28;20271;-41
2021/07/10 01:03:05;;;;;;;;;;;;;;;23.11;55.41;99973.94;2079418;28;19917;-41
2021/07/10 01:04:05;;;;;;;;;;;;;;;23.10;55.48;99969.50;2077806;28;20024;-41
2021/07/10 01:05:07;;;;;;;;;;;;;;;23.10;55.67;99975.00;2079161;28;19920;-41
2021/07/10 01:06:07;;;;;;;;;;;;;;;23.11;55.54;99962.94;2081729;28;19921;-41
2021/07/10 01:07:08;;;;;;;;;;;;;;;23.11;55.57;99959.34;2082302;28;20257;-40
2021/07/10 01:08:08;;;;;;;;;;;;;;;23.10;55.70;99958.50;2079444;28;19923;-41
2021/07/10 01:09:08;;;;;;;;;;;;;;;23.10;55.63;99958.50;2083273;28;20152;-41
2021/07/10 01:10:10;;;;;;;;;;;;;;;23.12;55.49;99955.53;2081653;28;20011;-41
2021/07/10 01:11:11;;;;;;;;;;;;;;;23.11;55.53;99953.84;2077870;28;20345;-40
2021/07/10 01:12:11;;;;;;;;;;;;;;;23.10;55.54;99953.00;2080476;28;20308;-41
2021/07/10 01:13:12;;;;;;;;;;;;;;;23.10;55.46;99958.50;2080153;28;19913;-41
2021/07/10 01:14:12;;;;;;;;;;;;;;;23.11;55.66;99957.44;2075835;28;20321;-42
2021/07/10 01:15:13;;;;;;;;;;;;;;;23.10;55.54;99958.50;2083683;28;19979;-41
2021/07/10 01:16:14;;;;;;;;;;;;;;;23.10;55.65;99961.25;2078137;28;19916;-41
2021/07/10 01:17:14;;;;;;;;;;;;;;;23.10;55.52;99958.50;2080967;28;19916;-42
2021/07/10 01:18:14;;;;;;;;;;;;;;;23.10;55.61;99958.50;2082557;28;19924;-41
2021/07/10 01:19:22;;;;;;;;;;;;;;;23.09;55.68;99954.00;2083031;28;20109;-41
2021/07/10 01:20:23;;;;;;;;;;;;;;;23.10;55.58;99954.84;2082874;28;19912;-41
2021/07/10 01:21:23;;;;;;;;;;;;;;;23.10;55.63;99958.50;2082724;28;19934;-41
2021/07/10 01:22:24;;;;;;;;;;;;;;;23.09;55.63;99956.75;2081198;28;20436;-42
2021/07/10 01:23:24;;;;;;;;;;;;;;;23.09;55.81;99951.25;2087414;28;19923;-41
2021/07/10 01:24:25;;;;;;;;;;;;;;;23.08;55.63;99955.06;2084712;28;20125;-41
2021/07/10 01:25:26;;;;;;;;;;;;;;;23.08;55.75;99955.06;2084267;28;19916;-40
2021/07/10 01:26:27;;;;;;;;;;;;;;;23.07;55.66;99953.31;2082245;28;20487;-42
2021/07/10 01:27:27;;;;;;;;;;;;;;;23.08;55.77;99955.06;2081306;28;19970;-41
2021/07/10 01:28:27;;;;;;;;;;;;;;;23.08;55.76;99948.72;2081604;28;19916;-41
2021/07/10 01:29:28;;;;;;;;;;;;;;;23.08;55.81;99954.22;2082469;28;20179;-41
2021/07/10 01:30:28;;;;;;;;;;;;;;;23.09;55.66;99954.00;2084752;28;19924;-41
2021/07/10 01:31:31;;;;;;;;;;;;;;;23.09;55.65;99951.25;2078956;28;20011;-39
2021/07/10 01:32:32;;;;;;;;;;;;;;;23.08;55.73;99945.97;2083645;28;20374;-41
2021/07/10 01:33:32;;;;;;;;;;;;;;;23.08;55.83;99952.31;2079738;28;19916;-40
2021/07/10 01:34:34;;;;;;;;;;;;;;;23.09;55.74;99948.50;2083203;28;19917;-40
2021/07/10 01:35:34;;;;;;;;;;;;;;;23.07;55.73;99939.59;2084111;28;19944;-41
2021/07/10 01:36:35;;;;;;;;;;;;;;;23.08;55.81;99944.06;2081526;28;20331;-41
2021/07/10 01:37:36;;;;;;;;;;;;;;;23.07;55.67;99942.34;2084980;28;20209;-41
2021/07/10 01:38:36;;;;;;;;;;;;;;;23.08;55.68;99937.72;2084151;28;20229;-41
2021/07/10 01:39:37;;;;;;;;;;;;;;;23.08;55.76;99938.56;2083497;28;20200;-41
2021/07/10 01:40:37;;;;;;;;;;;;;;;23.08;55.85;99937.72;2084979;28;20200;-41
2021/07/10 01:41:42;;;;;;;;;;;;;;;23.07;55.73;99931.34;2082566;28;20422;-41
2021/07/10 01:42:42;;;;;;;;;;;;;;;23.07;55.72;99928.59;2084642;28;19995;-46
2021/07/10 01:43:43;;;;;;;;;;;;;;;23.08;55.76;99930.31;2083003;28;20298;-41
2021/07/10 01:44:43;;;;;;;;;;;;;;;23.07;55.80;99928.59;2078975;28;20008;-40
2021/07/10 01:45:43;;;;;;;;;;;;;;;23.06;55.79;99929.63;2082628;28;20329;-41
2021/07/10 01:46:44;;;;;;;;;;;;;;;23.07;55.69;99931.34;2079280;28;19913;-40
2021/07/10 01:47:44;;;;;;;;;;;;;;;23.07;55.77;99931.34;2084755;28;19917;-41
2021/07/10 01:48:45;;;;;;;;;;;;;;;23.07;55.83;99925.84;2082678;28;19916;-42
2021/07/10 01:49:46;;;;;;;;;;;;;;;23.07;55.74;99924.97;2082104;28;19932;-41
2021/07/10 01:50:49;;;;;;;;;;;;;;;23.07;55.85;99930.47;2085384;28;19946;-40
2021/07/10 01:51:49;;;;;;;;;;;;;;;23.05;55.91;99916.94;2079046;28;20279;-41
2021/07/10 01:52:50;;;;;;;;;;;;;;;23.06;55.97;99923.28;2079911;28;20307;-41
2021/07/10 01:53:50;;;;;;;;;;;;;;;23.05;55.92;99922.44;2080305;28;19943;-41
2021/07/10 01:54:50;;;;;;;;;;;;;;;23.06;55.93;99924.13;2084961;28;19916;-40
2021/07/10 01:55:51;;;;;;;;;;;;;;;23.05;55.75;99919.69;2082788;28;20154;-41
2021/07/10 01:56:52;;;;;;;;;;;;;;;23.06;55.93;99923.28;2078474;28;20424;-41
2021/07/10 01:57:52;;;;;;;;;;;;;;;23.05;55.88;99916.94;2083325;28;20286;-39
2021/07/10 01:58:54;;;;;;;;;;;;;;;23.05;55.82;99922.44;2084839;28;19916;-41
2021/07/10 01:59:54;;;;;;;;;;;;;;;23.06;55.93;99921.38;2082894;28;19955;-41
2021/07/10 02:00:54;;;;;;;;;;;;;;;23.06;56.02;99924.13;2082790;28;19916;-40
2021/07/10 02:01:55;;;;;;;;;;;;;;;23.04;56.08;99920.72;2083253;28;19916;-41
2021/07/10 02:02:55;;;;;;;;;;;;;;;23.05;56.09;99921.56;2083708;28;20021;-41
2021/07/10 02:03:56;;;;;;;;;;;;;;;23.05;55.90;99905.06;2083895;28;19948;-40
2021/07/10 02:04:56;;;;;;;;;;;;;;;23.06;55.98;99912.28;2082274;28;19928;-40
2021/07/10 02:05:56;;;;;;;;;;;;;;;23.06;56.02;99912.28;2085231;28;19955;-45
2021/07/10 02:06:58;;;;;;;;;;;;;;;23.05;56.16;99905.94;2081752;28;20043;-41
2021/07/10 02:08:00;;;;;;;;;;;;;;;23.04;56.06;99904.22;2078611;28;19935;-41
2021/07/10 02:09:00;;;;;;;;;;;;;;;23.05;56.04;99911.44;2082438;28;19999;-41
2021/07/10 02:10:00;;;;;;;;;;;;;;;23.05;55.93;99905.06;2083996;28;19949;-41
2021/07/10 02:11:01;;;;;;;;;;;;;;;23.04;55.90;99904.22;2080025;28;19920;-41
2021/07/10 02:12:01;;;;;;;;;;;;;;;23.04;55.90;99900.63;2080782;28;20591;-41
2021/07/10 02:13:06;;;;;;;;;;;;;;;23.05;55.86;99899.56;2079815;28;20381;-41
2021/07/10 02:14:06;;;;;;;;;;;;;;;23.04;55.98;99903.38;2080244;28;20242;-41
2021/07/10 02:15:07;;;;;;;;;;;;;;;23.04;55.90;99893.22;2085330;28;20187;-39
2021/07/10 02:16:08;;;;;;;;;;;;;;;23.04;55.98;99901.47;2083803;28;19916;-41
2021/07/10 02:17:09;;;;;;;;;;;;;;;23.04;55.99;99898.72;2084247;28;19952;-40
2021/07/10 02:18:09;;;;;;;;;;;;;;;23.05;56.00;99900.44;2084103;28;19912;-40
2021/07/10 02:19:09;;;;;;;;;;;;;;;23.04;55.92;99898.72;2078210;28;19916;-41
2021/07/10 02:20:11;;;;;;;;;;;;;;;23.05;55.86;99897.69;2075552;28;20271;-41
2021/07/10 02:21:11;;;;;;;;;;;;;;;23.03;55.86;99897.00;2079463;28;19921;-41
2021/07/10 02:22:11;;;;;;;;;;;;;;;23.04;55.98;99895.13;2083480;28;20196;-40
2021/07/10 02:23:12;;;;;;;;;;;;;;;23.04;55.96;99897.88;2077559;28;20342;-41
2021/07/10 02:24:13;;;;;;;;;;;;;;;23.04;55.96;99898.72;2070782;28;19909;-41
2021/07/10 02:25:15;;;;;;;;;;;;;;;23.03;55.99;99888.78;2074852;28;20358;-41
2021/07/10 02:26:15;;;;;;;;;;;;;;;23.03;55.97;99894.25;2077622;28;19992;-40
2021/07/10 02:27:16;;;;;;;;;;;;;;;23.04;55.99;99893.22;2078621;28;20486;-41
2021/07/10 02:28:16;;;;;;;;;;;;;;;23.03;56.03;99883.28;2077306;28;20471;-41
2021/07/10 02:29:16;;;;;;;;;;;;;;;23.02;56.05;99892.53;2083082;28;20273;-41
2021/07/10 02:30:18;;;;;;;;;;;;;;;23.04;55.94;99889.63;2084447;28;20334;-41
2021/07/10 02:31:18;;;;;;;;;;;;;;;23.04;55.94;99881.38;2084113;28;20234;-40
2021/07/10 02:32:18;;;;;;;;;;;;;;;23.03;56.12;99890.66;2078750;28;20342;-41
2021/07/10 02:33:19;;;;;;;;;;;;;;;23.03;56.07;99896.16;2083633;28;20255;-42
2021/07/10 02:34:19;;;;;;;;;;;;;;;23.03;56.02;99891.50;2081440;28;19920;-41
2021/07/10 02:35:19;;;;;;;;;;;;;;;23.03;56.01;99896.16;2082997;28;19916;-41
2021/07/10 02:36:20;;;;;;;;;;;;;;;23.03;56.08;99894.25;2084253;28;19964;-41
2021/07/10 02:37:20;;;;;;;;;;;;;;;23.02;56.13;99884.28;2080464;28;19980;-44
2021/07/10 02:38:20;;;;;;;;;;;;;;;23.02;56.20;99889.78;2077596;28;20410;-42
2021/07/10 02:39:20;;;;;;;;;;;;;;;23.01;56.20;99888.09;2081675;28;19917;-39
2021/07/10 02:40:21;;;;;;;;;;;;;;;23.02;56.02;99895.28;2085656;28;19916;-41
2021/07/10 02:41:21;;;;;;;;;;;;;;;23.01;56.09;99888.09;2082775;28;20014;-41
2021/07/10 02:42:21;;;;;;;;;;;;;;;23.02;56.12;99887.03;2082904;28;19955;-41
2021/07/10 02:43:22;;;;;;;;;;;;;;;23.02;56.25;99884.28;2085393;28;19916;-41
2021/07/10 02:44:22;;;;;;;;;;;;;;;23.02;56.07;99876.03;2084172;28;20243;-41
2021/07/10 02:45:22;;;;;;;;;;;;;;;23.03;56.13;99880.53;2085585;28;19923;-44
2021/07/10 02:46:23;;;;;;;;;;;;;;;23.02;56.17;99878.78;2084191;28;19909;-41
2021/07/10 02:47:23;;;;;;;;;;;;;;;23.02;55.95;99872.44;2085603;28;19928;-41
2021/07/10 02:48:24;;;;;;;;;;;;;;;23.02;56.05;99872.44;2080003;28;19959;-41
2021/07/10 02:49:24;;;;;;;;;;;;;;;23.02;56.12;99876.03;2081159;28;19916;-41
2021/07/10 02:50:25;;;;;;;;;;;;;;;23.01;56.11;99876.25;2081963;28;19963;-43
2021/07/10 02:51:26;;;;;;;;;;;;;;;23.02;56.23;99867.78;2085051;28;19917;-41
2021/07/10 02:52:26;;;;;;;;;;;;;;;23.01;56.05;99868.84;2083443;28;20479;-41
2021/07/10 02:53:27;;;;;;;;;;;;;;;23.01;56.20;99866.09;2084892;28;20107;-40
2021/07/10 02:54:27;;;;;;;;;;;;;;;23.01;56.14;99866.09;2084523;28;20255;-40
2021/07/10 02:55:28;;;;;;;;;;;;;;;23.00;56.22;99864.38;2087683;28;20232;-40
2021/07/10 02:56:29;;;;;;;;;;;;;;;23.01;56.26;99870.75;2085737;28;20375;-40
2021/07/10 02:57:29;;;;;;;;;;;;;;;22.99;56.28;99868.16;2084359;28;20235;-42
2021/07/10 02:58:29;;;;;;;;;;;;;;;23.00;56.30;99869.00;2082500;28;19920;-41
2021/07/10 02:59:29;;;;;;;;;;;;;;;23.00;56.33;99864.38;2083711;28;19915;-41
2021/07/10 03:00:30;;;;;;;;;;;;;;;23.00;56.28;99867.13;2085112;28;19920;-41
2021/07/10 03:01:31;;;;;;;;;;;;;;;23.00;56.17;99871.75;2084008;28;20340;-41
2021/07/10 03:02:31;;;;;;;;;;;;;;;23.00;56.25;99864.38;2079644;28;20011;-41
2021/07/10 03:03:31;;;;;;;;;;;;;;;23.00;56.32;99872.59;2084808;28;19961;-41
2021/07/10 03:04:31;;;;;;;;;;;;;;;22.99;56.26;99868.16;2084560;28;20255;-41
2021/07/10 03:05:33;;;;;;;;;;;;;;;23.00;56.18;99869.84;2084701;28;19920;-41
2021/07/10 03:06:34;;;;;;;;;;;;;;;23.01;56.29;99870.75;2081995;28;19916;-41
2021/07/10 03:07:38;;;;;;;;;;;;;;;23.01;56.26;99871.59;2080841;28;20149;-43
2021/07/10 03:08:39;;;;;;;;;;;;;;;23.00;56.17;99875.34;2083187;28;19917;-41
2021/07/10 03:09:39;;;;;;;;;;;;;;;23.00;56.32;99875.34;2085976;28;20338;-40
2021/07/10 03:10:41;;;;;;;;;;;;;;;23.00;56.31;99869.00;2081604;28;20307;-40
2021/07/10 03:11:42;;;;;;;;;;;;;;;23.00;56.20;99864.38;2094726;28;19995;-40
2021/07/10 03:12:43;;;;;;;;;;;;;;;23.00;56.26;99861.63;2084360;28;20335;-40
2021/07/10 03:13:43;;;;;;;;;;;;;;;22.98;56.44;99863.72;2086349;28;19913;-41
2021/07/10 03:14:44;;;;;;;;;;;;;;;22.99;56.27;99870.91;2079317;28;20274;-41
2021/07/10 03:15:44;;;;;;;;;;;;;;;22.99;56.37;99864.56;2084897;28;20310;-41
2021/07/10 03:16:44;;;;;;;;;;;;;;;22.99;56.30;99868.16;2086047;28;19942;-41
2021/07/10 03:17:45;;;;;;;;;;;;;;;22.99;56.23;99862.66;2079545;28;19916;-41
2021/07/10 03:18:46;;;;;;;;;;;;;;;23.00;56.33;99856.13;2084299;28;20100;-40
2021/07/10 03:19:46;;;;;;;;;;;;;;;22.99;56.35;99862.66;2082635;28;19909;-41
2021/07/10 03:20:46;;;;;;;;;;;;;;;22.98;56.17;99855.47;2085750;28;19927;-41
2021/07/10 03:21:47;;;;;;;;;;;;;;;22.98;56.29;99858.22;2084925;28;20443;-40
2021/07/10 03:22:48;;;;;;;;;;;;;;;22.98;56.43;99855.47;2084694;28;20277;-41
2021/07/10 03:23:49;;;;;;;;;;;;;;;22.98;56.42;99863.72;2084743;28;20320;-41
2021/07/10 03:24:49;;;;;;;;;;;;;;;22.99;56.38;99862.66;2083278;28;19909;-40
2021/07/10 03:25:49;;;;;;;;;;;;;;;22.99;56.16;99861.81;2083254;28;20263;-41
2021/07/10 03:26:50;;;;;;;;;;;;;;;22.99;56.37;99861.81;2086071;28;19936;-41
2021/07/10 03:27:51;;;;;;;;;;;;;;;22.97;56.44;99859.22;2083210;28;19917;-40
2021/07/10 03:28:51;;;;;;;;;;;;;;;22.97;56.38;99861.94;2086351;28;20291;-42
2021/07/10 03:29:52;;;;;;;;;;;;;;;22.98;56.24;99855.47;2085288;28;19928;-40
2021/07/10 03:30:53;;;;;;;;;;;;;;;22.98;56.43;99863.72;2078349;28;20009;-41
2021/07/10 03:31:53;;;;;;;;;;;;;;;22.98;56.51;99865.59;2080625;28;19924;-41
2021/07/10 03:32:53;;;;;;;;;;;;;;;22.97;56.50;99861.94;2085534;28;19927;-41
2021/07/10 03:33:54;;;;;;;;;;;;;;;22.97;56.38;99864.69;2079644;28;20156;-41
2021/07/10 03:34:54;;;;;;;;;;;;;;;22.97;56.42;99864.69;2079679;28;19913;-41
2021/07/10 03:35:54;;;;;;;;;;;;;;;22.97;56.32;99864.69;2084919;28;19920;-40
2021/07/10 03:36:55;;;;;;;;;;;;;;;22.97;56.41;99859.22;2084457;28;19960;-41
2021/07/10 03:37:57;;;;;;;;;;;;;;;22.97;56.38;99859.22;2086117;28;20261;-41
2021/07/10 03:38:57;;;;;;;;;;;;;;;22.97;56.40;99855.59;2083042;28;19967;-41
2021/07/10 03:39:58;;;;;;;;;;;;;;;22.96;56.55;99863.00;2084399;28;20007;-41
2021/07/10 03:40:58;;;;;;;;;;;;;;;22.96;56.59;99857.50;2086233;28;19958;-41
2021/07/10 03:41:58;;;;;;;;;;;;;;;22.96;56.52;99857.50;2084631;28;19927;-40
2021/07/10 03:42:58;;;;;;;;;;;;;;;22.96;56.54;99857.50;2086823;28;19921;-41
2021/07/10 03:43:59;;;;;;;;;;;;;;;22.96;56.36;99857.50;2082266;28;20374;-41
2021/07/10 03:44:59;;;;;;;;;;;;;;;22.96;56.48;99852.00;2078641;28;19936;-41
2021/07/10 03:46:02;;;;;;;;;;;;;;;22.95;56.37;99855.78;2084183;28;19952;-41
2021/07/10 03:47:03;;;;;;;;;;;;;;;22.96;56.41;99853.91;2084942;28;20456;-41
2021/07/10 03:48:03;;;;;;;;;;;;;;;22.96;56.32;99852.00;2080980;28;19913;-42
2021/07/10 03:49:03;;;;;;;;;;;;;;;22.96;56.25;99851.16;2079298;28;19917;-41
2021/07/10 03:50:05;;;;;;;;;;;;;;;22.96;56.41;99851.16;2087734;28;19930;-40
2021/07/10 03:51:06;;;;;;;;;;;;;;;22.95;56.33;99850.28;2093722;28;19920;-40
2021/07/10 03:52:06;;;;;;;;;;;;;;;22.96;56.22;99841.00;2081759;28;19921;-41
2021/07/10 03:53:07;;;;;;;;;;;;;;;22.95;56.29;99844.78;2078935;28;19917;-41
2021/07/10 03:54:07;;;;;;;;;;;;;;;22.96;56.39;99852.00;2081962;28;19923;-41
2021/07/10 03:55:09;;;;;;;;;;;;;;;22.95;56.32;99844.78;2083925;28;19916;-40
2021/07/10 03:56:09;;;;;;;;;;;;;;;22.94;56.41;99843.09;2083676;28;19924;-40
2021/07/10 03:57:09;;;;;;;;;;;;;;;22.95;56.53;99844.78;2082589;28;19915;-41
2021/07/10 03:58:10;;;;;;;;;;;;;;;22.95;56.29;99850.28;2085797;28;19936;-41
2021/07/10 03:59:10;;;;;;;;;;;;;;;22.95;56.47;99849.44;2081878;28;20262;-41
2021/07/10 04:00:12;;;;;;;;;;;;;;;22.95;56.39;99850.28;2085485;28;19916;-41
2021/07/10 04:01:13;;;;;;;;;;;;;;;22.95;56.37;99855.78;2085701;28;20396;-41
2021/07/10 04:02:13;;;;;;;;;;;;;;;22.94;56.27;99843.09;2081871;28;20324;-40
2021/07/10 04:03:13;;;;;;;;;;;;;;;22.95;56.26;99844.78;2081529;28;19921;-41
2021/07/10 04:04:14;;;;;;;;;;;;;;;22.94;56.35;99851.31;2085679;28;19916;-41
2021/07/10 04:05:14;;;;;;;;;;;;;;;22.94;56.35;99843.09;2084990;28;20107;-41
2021/07/10 04:06:15;;;;;;;;;;;;;;;22.94;56.30;99850.47;2085170;28;19927;-41
2021/07/10 04:07:15;;;;;;;;;;;;;;;22.94;56.59;99848.59;2082349;28;19920;-40
2021/07/10 04:08:16;;;;;;;;;;;;;;;22.93;56.29;99855.13;2085853;28;19921;-41
2021/07/10 04:09:16;;;;;;;;;;;;;;;22.94;56.40;99847.72;2084091;28;19916;-41
2021/07/10 04:10:17;;;;;;;;;;;;;;;22.93;56.48;99852.38;2080530;28;20155;-41
2021/07/10 04:11:17;;;;;;;;;;;;;;;22.94;56.40;99848.59;2083100;28;19927;-42
2021/07/10 04:12:18;;;;;;;;;;;;;;;22.94;56.55;99847.72;2085815;28;19967;-41
2021/07/10 04:13:18;;;;;;;;;;;;;;;22.93;56.36;99846.88;2085338;28;20297;-40
2021/07/10 04:14:18;;;;;;;;;;;;;;;22.93;56.21;99844.13;2081010;28;20377;-41
2021/07/10 04:15:19;;;;;;;;;;;;;;;22.92;56.51;99839.66;2080604;28;19920;-40
2021/07/10 04:16:19;;;;;;;;;;;;;;;22.93;56.28;99846.00;2081640;28;19951;-41
2021/07/10 04:17:20;;;;;;;;;;;;;;;22.93;56.41;99833.13;2079028;28;20293;-41
2021/07/10 04:18:20;;;;;;;;;;;;;;;22.93;56.41;99835.88;2083877;28;20187;-40
2021/07/10 04:19:20;;;;;;;;;;;;;;;22.93;56.27;99835.88;2083433;28;20560;-40
2021/07/10 04:20:20;;;;;;;;;;;;;;;22.92;56.26;99844.31;2080178;28;19921;-40
2021/07/10 04:21:21;;;;;;;;;;;;;;;22.93;56.35;99843.25;2081924;28;20228;-40
2021/07/10 04:22:21;;;;;;;;;;;;;;;22.92;56.46;99833.31;2084379;28;19917;-41
2021/07/10 04:23:24;;;;;;;;;;;;;;;22.91;56.26;99843.44;2084182;28;19916;-41
2021/07/10 04:24:25;;;;;;;;;;;;;;;22.90;56.31;99838.97;2079821;28;19912;-41
2021/07/10 04:25:25;;;;;;;;;;;;;;;22.90;56.42;99842.56;2085186;28;19916;-41
2021/07/10 04:26:25;;;;;;;;;;;;;;;22.89;56.48;99829.03;2082886;28;19916;-41
2021/07/10 04:27:26;;;;;;;;;;;;;;;22.90;56.44;99841.72;2077387;28;19921;-41
2021/07/10 04:28:26;;;;;;;;;;;;;;;22.90;56.34;99836.22;2083943;28;20149;-41
2021/07/10 04:29:26;;;;;;;;;;;;;;;22.91;56.33;99837.97;2084964;28;19946;-40
2021/07/10 04:30:27;;;;;;;;;;;;;;;22.91;56.44;99843.44;2082896;28;20433;-41
2021/07/10 04:31:27;;;;;;;;;;;;;;;22.90;56.50;99842.56;2086800;28;19968;-40
2021/07/10 04:32:27;;;;;;;;;;;;;;;22.91;56.50;99837.97;2086321;28;19930;-40
2021/07/10 04:33:28;;;;;;;;;;;;;;;22.89;56.48;99840.03;2083895;28;20620;-41
2021/07/10 04:34:28;;;;;;;;;;;;;;;22.90;56.35;99830.72;2082747;28;19923;-40
2021/07/10 04:35:28;;;;;;;;;;;;;;;22.91;56.45;99832.47;2083208;28;19921;-41
2021/07/10 04:36:29;;;;;;;;;;;;;;;22.90;56.28;99831.56;2083025;28;20429;-41
2021/07/10 04:37:29;;;;;;;;;;;;;;;22.91;56.35;99843.44;2081555;28;19924;-41
2021/07/10 04:38:30;;;;;;;;;;;;;;;22.91;56.30;99837.97;2082814;28;19920;-41
2021/07/10 04:39:30;;;;;;;;;;;;;;;22.90;56.50;99836.22;2079204;28;19916;-41
2021/07/10 04:40:30;;;;;;;;;;;;;;;22.89;56.24;99834.53;2083694;28;19917;-44
2021/07/10 04:41:31;;;;;;;;;;;;;;;22.90;56.39;99836.22;2085523;28;19973;-40
2021/07/10 04:42:31;;;;;;;;;;;;;;;22.88;56.43;99825.44;2081062;28;19917;-41
2021/07/10 04:43:32;;;;;;;;;;;;;;;22.90;56.34;99825.22;2084304;28;20238;-40
2021/07/10 04:44:32;;;;;;;;;;;;;;;22.91;56.44;99837.97;2078674;28;19920;-45
2021/07/10 04:45:33;;;;;;;;;;;;;;;22.89;56.24;99829.03;2084787;28;19946;-40
2021/07/10 04:46:33;;;;;;;;;;;;;;;22.88;56.40;99833.69;2084937;28;19979;-42
2021/07/10 04:47:34;;;;;;;;;;;;;;;22.89;56.25;99834.53;2081441;28;20603;-42
2021/07/10 04:48:34;;;;;;;;;;;;;;;22.89;56.45;99840.03;2083633;28;19923;-40
2021/07/10 04:49:35;;;;;;;;;;;;;;;22.88;56.42;99839.19;2082849;28;19935;-41
2021/07/10 04:50:35;;;;;;;;;;;;;;;22.89;56.30;99837.28;2077308;28;20232;-46
2021/07/10 04:51:36;;;;;;;;;;;;;;;22.88;56.47;99839.19;2084710;28;20241;-41
2021/07/10 04:52:36;;;;;;;;;;;;;;;22.87;56.50;99836.59;2083226;28;20117;-41
2021/07/10 04:53:36;;;;;;;;;;;;;;;22.88;56.41;99832.78;2085377;28;20470;-41
2021/07/10 04:54:36;;;;;;;;;;;;;;;22.87;56.41;99836.59;2083579;28;20270;-41
2021/07/10 04:55:37;;;;;;;;;;;;;;;22.87;56.32;99831.94;2085581;28;19920;-41
2021/07/10 04:56:37;;;;;;;;;;;;;;;22.87;56.50;99831.09;2078819;28;20015;-41
2021/07/10 04:57:38;;;;;;;;;;;;;;;22.87;56.32;99825.59;2083388;28;20236;-42
2021/07/10 04:58:38;;;;;;;;;;;;;;;22.87;56.42;99822.84;2085919;28;19916;-41
2021/07/10 04:59:39;;;;;;;;;;;;;;;22.87;56.50;99831.09;2081820;28;19923;-41
2021/07/10 05:00:39;;;;;;;;;;;;;;;22.88;56.44;99827.31;2085945;28;19916;-41
2021/07/10 05:01:39;;;;;;;;;;;;;;;22.86;56.38;99824.75;2080589;28;20149;-41
2021/07/10 05:02:40;;;;;;;;;;;;;;;22.87;56.39;99825.59;2084529;28;20197;-41
2021/07/10 05:03:40;;;;;;;;;;;;;;;22.86;56.47;99837.66;2082532;28;19955;-40
2021/07/10 05:04:41;;;;;;;;;;;;;;;22.86;56.65;99834.91;2081262;28;20292;-41
2021/07/10 05:05:41;;;;;;;;;;;;;;;22.86;56.62;99840.41;2083266;28;20230;-41
2021/07/10 05:06:41;;;;;;;;;;;;;;;22.85;56.34;99833.16;2080707;28;19916;-41
2021/07/10 05:07:42;;;;;;;;;;;;;;;22.86;56.55;99829.41;2085743;28;20013;-41
2021/07/10 05:08:42;;;;;;;;;;;;;;;22.86;56.53;99829.41;2083663;28;19925;-40
2021/07/10 05:09:43;;;;;;;;;;;;;;;22.86;56.32;99833.00;2084297;28;20385;-41
2021/07/10 05:10:44;;;;;;;;;;;;;;;22.86;56.40;99834.91;2081769;28;20170;-40
2021/07/10 05:11:44;;;;;;;;;;;;;;;22.87;56.34;99842.09;2084140;28;19909;-41
2021/07/10 05:12:44;;;;;;;;;;;;;;;22.86;56.37;99837.66;2087105;28;20446;-41
2021/07/10 05:13:45;;;;;;;;;;;;;;;22.87;56.50;99842.09;2083342;28;19916;-40
2021/07/10 05:14:45;;;;;;;;;;;;;;;22.86;56.31;99848.63;2082940;28;19920;-41